MMTP/TAP METAR and TAF weather

Enter ICAO airport designator
Station Type Date Time Source
MMTP METAR 2019/06/17 05:41 UTC NOAA

MMTP 170541Z 00000KT 10SM FEW150 26/25 A2986 RMK SLP134 52001 960 8/010 HZY


Station Type Date Time Source
MMTP Decoded METAR 2019/06/17 05:41 UTC NOAA

Tapachula , Mexico (MMTP) 14-47N 092-23W
Jun 17, 2019 - 01:41 AM EDT / 2019.06.17 0541 UTC
Wind: Calm:0
Visibility: 10 mile(s):0
Sky conditions: mostly clear
Temperature: 78 F (26 C)
Dew Point: 77 F (25 C)
Relative Humidity: 94%
Pressure (altimeter): 29.86 in. Hg (1011 hPa)
Pressure tendency: 0.00 inches (0.1 hPa) higher than three hours ago
ob: MMTP 170541Z 00000KT 10SM FEW150 26/25 A2986 RMK SLP134 52001 960 8/010 HZY
cycle: 5

Station Type Date Time Source
MMTP TAF 2019/06/17 06:10 UTC NOAA

TAF MMTP 170503Z 1706/1812 00000KT P6SM SCT150
FM171800 25010KT P6SM SCT030 BKN090 PROB40 1722/1802 5SM -TSRA BKN030CB
FM180700 02005KT P6SM SCT030 BKN090 BKN240

Example: see airport list